Time;durP1;ratioP1;P1;durP2;ratioP2;P2;SDS_P1;SDS_P2;PMS_P1;PMS_P2;Temp;Humidity;BMP_temperature;BMP_pressure;BME280_temperature;BME280_humidity;BME280_pressure;Samples;Min_cycle;Max_cycle;Signal;HPM_P1;HPM_P2
2021/03/08 06:58:33;;;;;;;13.85;9.57;;;;;;;;;;10689233;27;20103;-85
2021/03/08 07:04:01;;;;;;;16.67;11.93;;;;;;;;;;10626338;28;20039;-86
2021/03/08 07:26:52;;;;;;;16.63;14.93;;;;;;;;;;10619780;27;20024;-85
2021/03/08 07:32:32;;;;;;;11.10;9.90;;;;;;;;;;10593033;28;20054;-86
2021/03/08 07:55:05;;;;;;;12.93;11.63;;;;;;;;;;10512198;28;20032;-86
2021/03/08 08:00:26;;;;;;;5.55;4.82;;;;;;;;;;10475028;28;20033;-82
2021/03/08 08:05:27;;;;;;;11.18;10.00;;;;;;;;;;10558463;28;20446;-81
2021/03/08 08:10:28;;;;;;;13.82;11.45;;;;;;;;;;10538579;28;20024;-83
2021/03/08 08:15:31;;;;;;;14.13;12.63;;;;;;;;;;10540034;28;20115;-86
2021/03/08 08:20:32;;;;;;;14.07;12.57;;;;;;;;;;10537944;28;20512;-84
2021/03/08 08:25:33;;;;;;;17.70;15.90;;;;;;;;;;10540237;28;20405;-85
2021/03/08 08:30:34;;;;;;;18.55;16.48;;;;;;;;;;10541661;28;20115;-84
2021/03/08 08:35:35;;;;;;;19.63;17.35;;;;;;;;;;10536652;28;20243;-83
2021/03/08 08:40:38;;;;;;;20.35;16.55;;;;;;;;;;10551086;28;20024;-83
2021/03/08 08:45:39;;;;;;;19.13;17.05;;;;;;;;;;10556640;28;20030;-83
2021/03/08 08:50:46;;;;;;;21.85;16.77;;;;;;;;;;10558393;28;20413;-84
2021/03/08 08:55:47;;;;;;;20.35;16.20;;;;;;;;;;10556263;28;20032;-83
2021/03/08 09:01:16;;;;;;;23.27;17.88;;;;;;;;;;10576606;28;20042;-83
2021/03/08 09:06:40;;;;;;;19.58;16.27;;;;;;;;;;10493928;28;20497;-85
2021/03/08 09:11:45;;;;;;;17.70;14.10;;;;;;;;;;10549880;28;20024;-84
2021/03/08 09:17:25;;;;;;;23.40;19.65;;;;;;;;;;10552379;28;20028;-84
2021/03/08 09:23:01;;;;;;;22.75;17.92;;;;;;;;;;10553703;28;20058;-84
2021/03/08 09:28:26;;;;;;;18.00;13.07;;;;;;;;;;10556884;28;20024;-84
2021/03/08 09:44:48;;;;;;;29.35;24.30;;;;;;;;;;10550649;28;20048;-85
2021/03/08 09:55:37;;;;;;;21.08;18.75;;;;;;;;;;10585763;28;20066;-84
2021/03/08 10:00:53;;;;;;;21.27;17.92;;;;;;;;;;10546909;28;20035;-85
2021/03/08 10:06:20;;;;;;;30.65;26.88;;;;;;;;;;10542118;28;20091;-85
2021/03/08 10:11:39;;;;;;;18.58;16.00;;;;;;;;;;10561189;28;20024;-85
2021/03/08 10:17:04;;;;;;;25.17;22.25;;;;;;;;;;10525016;28;20501;-85
2021/03/08 10:22:06;;;;;;;18.17;16.17;;;;;;;;;;10541087;28;20056;-83
2021/03/08 10:27:10;;;;;;;18.58;16.15;;;;;;;;;;10544797;28;20096;-84
2021/03/08 10:32:11;;;;;;;23.85;21.25;;;;;;;;;;10544345;28;20024;-84
2021/03/08 10:37:39;;;;;;;18.15;16.20;;;;;;;;;;10561828;28;20079;-84
2021/03/08 10:43:20;;;;;;;17.50;12.48;;;;;;;;;;10556107;28;20032;-84
2021/03/08 10:48:54;;;;;;;17.83;15.98;;;;;;;;;;10550099;28;20055;-85
2021/03/08 10:54:02;;;;;;;13.10;11.55;;;;;;;;;;10548675;28;20100;-85
2021/03/08 10:59:29;;;;;;;17.65;15.65;;;;;;;;;;10526048;28;20394;-84
2021/03/08 11:05:15;;;;;;;18.35;16.45;;;;;;;;;;10561265;28;20108;-84
2021/03/08 11:10:54;;;;;;;16.77;15.02;;;;;;;;;;10528538;28;20035;-84
2021/03/08 11:16:09;;;;;;;21.73;19.48;;;;;;;;;;10572790;28;20081;-85
2021/03/08 11:21:51;;;;;;;27.25;24.35;;;;;;;;;;10569550;28;20046;-85
2021/03/08 11:27:17;;;;;;;17.65;15.75;;;;;;;;;;10551596;28;20032;-85
2021/03/08 11:32:35;;;;;;;17.73;15.93;;;;;;;;;;10531812;28;20044;-85
2021/03/08 11:37:46;;;;;;;17.60;15.70;;;;;;;;;;10554177;28;20032;-84
2021/03/08 11:42:50;;;;;;;28.38;25.42;;;;;;;;;;10544558;28;20036;-84
2021/03/08 11:48:11;;;;;;;18.27;15.88;;;;;;;;;;10579000;28;20020;-84
2021/03/08 11:53:14;;;;;;;14.93;13.43;;;;;;;;;;10558609;28;20049;-84
2021/03/08 11:58:30;;;;;;;19.73;16.60;;;;;;;;;;10571578;28;20194;-84
2021/03/08 12:04:00;;;;;;;14.90;13.38;;;;;;;;;;10556891;28;20036;-85
2021/03/08 12:14:40;;;;;;;17.63;13.30;;;;;;;;;;10584372;28;20019;-84
2021/03/08 12:19:41;;;;;;;10.43;9.35;;;;;;;;;;10569807;28;20036;-84
2021/03/08 12:24:42;;;;;;;12.07;10.68;;;;;;;;;;10566379;28;20035;-85
2021/03/08 12:30:16;;;;;;;17.92;16.05;;;;;;;;;;10554758;28;20462;-85
2021/03/08 12:35:19;;;;;;;19.67;17.17;;;;;;;;;;10537475;28;20032;-85
2021/03/08 12:40:27;;;;;;;;;;;;;;;;;;10574678;28;20016;-85
2021/03/08 12:45:35;;;;;;;13.15;11.82;;;;;;;;;;10553138;28;19939;-85
2021/03/08 12:56:22;;;;;;;20.65;18.30;;;;;;;;;;10571131;28;20024;-85
2021/03/08 13:01:52;;;;;;;15.20;13.15;;;;;;;;;;10552936;28;20028;-85
2021/03/08 13:46:17;;;;;;;19.50;17.50;;;;;;;;;;10280058;28;20031;-86
2021/03/08 15:00:55;;;;;;;13.25;11.07;;;;;;;;;;10351089;28;20484;-86
2021/03/08 15:06:05;;;;;;;14.20;12.80;;;;;;;;;;10359308;28;20089;-86
2021/03/08 15:11:06;;;;;;;10.80;8.68;;;;;;;;;;10365657;28;20062;-86
2021/03/08 15:16:31;;;;;;;12.60;11.30;;;;;;;;;;10350452;28;20038;-87
2021/03/08 16:33:06;;;;;;;25.90;23.20;;;;;;;;;;10409535;28;20090;-86
2021/03/08 17:10:41;;;;;;;;;;;;;;;;;;;;;
2021/03/08 17:16:23;;;;;;;15.10;13.65;;;;;;;;;;10392243;28;20037;-84
2021/03/08 17:33:29;;;;;;;21.45;18.80;;;;;;;;;;10405479;28;20443;-85
2021/03/08 17:38:52;;;;;;;14.23;12.82;;;;;;;;;;10372624;28;20057;-84
2021/03/08 17:55:42;;;;;;;18.50;15.55;;;;;;;;;;10267184;28;21062;-86
2021/03/08 18:12:17;;;;;;;19.33;17.33;;;;;;;;;;10326735;28;20011;-86
2021/03/08 18:34:01;;;;;;;17.48;15.70;;;;;;;;;;10322295;28;20030;-85
2021/03/08 18:39:16;;;;;;;19.30;17.27;;;;;;;;;;10323903;28;20046;-85
2021/03/08 18:56:21;;;;;;;25.73;22.38;;;;;;;;;;10405997;28;20038;-85
2021/03/08 19:30:23;;;;;;;24.48;21.58;;;;;;;;;;10322054;28;20077;-86
2021/03/08 19:41:59;;;;;;;;;;;;;;;;;;;;;
2021/03/08 19:47:51;;;;;;;;;;;;;;;;;;;;;
2021/03/08 19:53:49;;;;;;;;;;;;;;;;;;;;;
2021/03/08 20:44:55;;;;;;;23.73;21.20;;;;;;;;;;10397930;28;20487;-88
